Time;durP1;ratioP1;P1;durP2;ratioP2;P2;SDS_P1;SDS_P2;PMS_P1;PMS_P2;Temp;Humidity;BMP_temperature;BMP_pressure;BME280_temperature;BME280_humidity;BME280_pressure;Samples;Min_cycle;Max_cycle;Signal;HPM_P1;HPM_P2
2021/12/12 00:02:11;;;;;;;91.53;52.08;;;3.50;99.90;;;;;;5001962;28;20046;-52
2021/12/12 00:04:44;;;;;;;106.40;56.22;;;3.50;99.90;;;;;;4986529;28;20056;-52
2021/12/12 00:07:14;;;;;;;102.55;57.00;;;3.50;99.90;;;;;;5001900;28;20049;-53
2021/12/12 00:09:43;;;;;;;97.10;53.63;;;3.50;99.90;;;;;;4963221;28;20050;-51
2021/12/12 00:12:18;;;;;;;88.85;52.08;;;3.50;99.90;;;;;;4992602;28;20045;-47
2021/12/12 00:14:45;;;;;;;92.93;52.13;;;3.50;99.90;;;;;;5010584;28;20056;-49
2021/12/12 00:17:12;;;;;;;95.53;52.35;;;3.50;99.90;;;;;;4991981;28;20058;-49
2021/12/12 00:19:42;;;;;;;84.32;51.88;;;3.60;99.90;;;;;;4984781;28;20054;-61
2021/12/12 00:22:12;;;;;;;92.97;51.72;;;3.60;99.90;;;;;;4957204;28;20054;-62
2021/12/12 00:24:40;;;;;;;86.85;49.55;;;3.50;99.90;;;;;;4972901;28;20046;-52
2021/12/12 00:27:06;;;;;;;88.47;50.65;;;3.60;99.90;;;;;;4991018;28;20056;-48
2021/12/12 00:29:33;;;;;;;84.68;50.72;;;3.60;99.90;;;;;;4973201;28;20077;-61
2021/12/12 00:32:08;;;;;;;78.45;48.38;;;3.60;99.90;;;;;;4971895;28;20054;-61
2021/12/12 00:34:39;;;;;;;85.22;51.70;;;3.60;99.90;;;;;;4988748;28;20112;-61
2021/12/12 00:37:08;;;;;;;93.85;51.45;;;3.60;99.90;;;;;;4989114;28;20725;-61
2021/12/12 00:39:37;;;;;;;84.28;49.10;;;3.60;99.90;;;;;;4954453;28;20058;-61
2021/12/12 00:42:10;;;;;;;84.32;49.92;;;3.60;99.90;;;;;;4971594;28;20085;-61
2021/12/12 00:44:39;;;;;;;88.50;50.42;;;3.70;99.90;;;;;;4973013;28;20124;-61
2021/12/12 00:47:08;;;;;;;80.55;48.15;;;3.70;99.90;;;;;;4956321;28;20952;-61
2021/12/12 00:49:35;;;;;;;88.65;49.20;;;3.70;99.90;;;;;;4989097;28;20057;-61
2021/12/12 00:52:04;;;;;;;86.20;51.05;;;3.70;99.90;;;;;;4989395;28;20072;-61
2021/12/12 00:54:31;;;;;;;88.03;50.38;;;3.70;99.90;;;;;;4988489;28;20050;-61
2021/12/12 00:57:03;;;;;;;84.55;51.25;;;3.70;99.90;;;;;;4989932;28;20812;-61
2021/12/12 00:59:30;;;;;;;87.07;51.13;;;3.70;99.90;;;;;;4987985;28;20397;-61
2021/12/12 01:01:57;;;;;;;83.10;48.60;;;3.70;99.90;;;;;;4971551;28;20466;-61
2021/12/12 01:04:28;;;;;;;74.93;46.97;;;3.70;99.90;;;;;;4955426;28;20131;-61
2021/12/12 01:06:57;;;;;;;88.65;49.13;;;3.80;99.90;;;;;;4985972;28;20046;-61
2021/12/12 01:09:30;;;;;;;85.85;47.33;;;3.80;99.90;;;;;;4973818;28;20070;-61
2021/12/12 01:11:59;;;;;;;86.65;49.53;;;3.70;99.90;;;;;;4946368;28;20456;-61
2021/12/12 01:14:30;;;;;;;84.68;47.88;;;3.70;99.90;;;;;;4977410;28;20056;-61
2021/12/12 01:17:10;;;;;;;83.78;48.95;;;3.80;99.90;;;;;;4995826;28;20121;-62
2021/12/12 01:19:45;;;;;;;79.00;46.80;;;3.80;99.90;;;;;;5002135;28;20050;-61
2021/12/12 01:22:19;;;;;;;82.50;47.05;;;3.80;99.90;;;;;;4996940;28;20073;-61
2021/12/12 01:24:50;;;;;;;76.47;47.70;;;3.80;99.90;;;;;;4949750;28;20107;-63
2021/12/12 01:27:18;;;;;;;82.40;46.10;;;3.80;99.90;;;;;;4997530;28;20041;-61
2021/12/12 01:29:44;;;;;;;81.53;46.65;;;3.80;99.90;;;;;;4997494;28;20077;-61
2021/12/12 01:32:20;;;;;;;76.93;46.75;;;3.80;99.90;;;;;;5014614;28;20509;-61
2021/12/12 01:34:50;;;;;;;80.28;45.65;;;3.80;99.90;;;;;;4996457;28;20523;-61
2021/12/12 01:39:53;;;;;;;75.55;44.63;;;3.80;99.90;;;;;;5013811;28;20049;-48
2021/12/12 01:42:28;;;;;;;72.95;43.25;;;3.90;99.90;;;;;;5014132;28;20046;-61
2021/12/12 01:45:02;;;;;;;77.43;47.28;;;3.90;99.90;;;;;;5001901;28;20045;-61
2021/12/12 01:47:37;;;;;;;79.82;45.03;;;3.90;99.90;;;;;;5015600;28;20077;-61
2021/12/12 01:50:11;;;;;;;81.22;46.35;;;3.90;99.90;;;;;;4980361;28;20140;-62
2021/12/12 01:52:39;;;;;;;82.30;47.33;;;3.90;99.90;;;;;;5014319;28;20049;-61
2021/12/12 01:55:23;;;;;;;81.88;47.15;;;3.90;99.90;;;;;;4984629;28;20073;-51
2021/12/12 01:57:52;;;;;;;83.30;47.47;;;3.90;99.90;;;;;;4997613;28;20057;-50
2021/12/12 02:00:25;;;;;;;84.30;47.33;;;3.90;99.90;;;;;;4996778;28;20045;-54
2021/12/12 02:02:52;;;;;;;79.97;47.80;;;3.90;99.90;;;;;;4996665;28;20370;-52
2021/12/12 02:05:20;;;;;;;86.38;47.20;;;3.90;99.90;;;;;;4979522;28;20393;-54
2021/12/12 02:07:57;;;;;;;88.63;50.10;;;3.90;99.90;;;;;;5013259;28;20045;-53
2021/12/12 02:10:33;;;;;;;90.35;52.17;;;4.00;99.90;;;;;;5001279;28;20049;-53
2021/12/12 02:13:02;;;;;;;84.55;47.50;;;3.90;99.90;;;;;;5014766;28;20113;-52
2021/12/12 02:15:31;;;;;;;92.35;48.28;;;3.90;99.90;;;;;;4995673;28;20496;-51
2021/12/12 02:17:57;;;;;;;86.53;48.00;;;3.90;99.90;;;;;;4975862;28;20050;-49
2021/12/12 02:20:45;;;;;;;94.57;49.85;;;3.90;99.90;;;;;;4982248;28;20066;-49
2021/12/12 02:24:13;;;;;;;85.32;49.85;;;3.90;99.90;;;;;;4975008;28;20039;-50
2021/12/12 02:37:10;;;;;;;79.80;45.47;;;4.00;99.90;;;;;;4974098;28;20035;-59
2021/12/12 02:39:39;;;;;;;78.60;46.40;;;4.00;99.90;;;;;;4989906;28;20117;-59
2021/12/12 02:42:12;;;;;;;75.22;46.22;;;4.00;99.90;;;;;;4991195;28;20046;-60
2021/12/12 02:44:41;;;;;;;74.75;44.80;;;4.00;99.90;;;;;;4989900;28;20517;-47
2021/12/12 02:47:14;;;;;;;80.88;43.47;;;4.00;99.90;;;;;;4991917;28;20046;-48
2021/12/12 02:49:56;;;;;;;82.50;44.92;;;4.00;99.90;;;;;;4973607;28;20133;-48
2021/12/12 02:52:27;;;;;;;74.75;45.50;;;4.10;99.90;;;;;;4973334;28;20050;-51
2021/12/12 02:54:53;;;;;;;71.32;40.35;;;4.10;99.90;;;;;;4977640;28;20569;-48
2021/12/12 02:57:20;;;;;;;74.43;43.47;;;4.10;99.90;;;;;;4954393;28;20082;-49
2021/12/12 02:59:50;;;;;;;74.70;40.72;;;4.10;99.90;;;;;;4987188;28;20043;-59
2021/12/12 03:02:25;;;;;;;69.07;39.53;;;4.00;99.90;;;;;;4967971;28;20112;-59
2021/12/12 03:04:53;;;;;;;71.57;39.58;;;4.10;99.90;;;;;;4977349;28;20107;-51
2021/12/12 03:07:19;;;;;;;66.10;38.90;;;4.10;99.90;;;;;;4990965;28;20050;-60
2021/12/12 03:09:52;;;;;;;64.55;39.45;;;4.10;99.90;;;;;;4973299;28;20054;-60
2021/12/12 03:12:23;;;;;;;62.45;38.45;;;4.10;99.90;;;;;;4973898;28;20077;-60
2021/12/12 03:14:50;;;;;;;60.50;34.90;;;4.20;99.90;;;;;;4990654;28;20054;-60
2021/12/12 03:17:21;;;;;;;69.07;37.00;;;4.20;99.90;;;;;;4958592;28;20180;-60
2021/12/12 03:19:51;;;;;;;69.57;37.38;;;4.20;99.90;;;;;;4981676;28;20417;-60
2021/12/12 03:22:19;;;;;;;67.90;37.10;;;4.20;99.90;;;;;;5009185;28;20049;-48
2021/12/12 03:24:45;;;;;;;58.67;34.88;;;4.20;99.90;;;;;;4960795;28;20057;-60
2021/12/12 03:27:12;;;;;;;57.03;33.60;;;4.20;99.90;;;;;;4976296;28;20057;-60
2021/12/12 03:29:40;;;;;;;59.60;36.35;;;4.20;99.90;;;;;;4989845;28;20081;-59
2021/12/12 03:32:22;;;;;;;64.82;35.83;;;4.30;99.90;;;;;;4995991;28;20101;-53
2021/12/12 03:34:55;;;;;;;55.20;32.85;;;4.30;99.90;;;;;;4991115;28;20486;-59
2021/12/12 03:37:25;;;;;;;57.63;32.88;;;4.30;99.90;;;;;;4990933;28;20053;-60
2021/12/12 03:39:54;;;;;;;61.50;34.92;;;4.30;99.90;;;;;;4976476;28;20061;-54
2021/12/12 03:42:24;;;;;;;54.50;33.78;;;4.30;99.90;;;;;;4984924;28;20105;-50
2021/12/12 03:44:52;;;;;;;57.75;33.70;;;4.40;99.90;;;;;;4984947;28;20072;-48
2021/12/12 03:47:24;;;;;;;57.47;33.80;;;4.40;99.90;;;;;;4974114;28;20089;-48
2021/12/12 03:49:50;;;;;;;55.63;32.63;;;4.40;99.90;;;;;;5009819;28;20068;-49
2021/12/12 03:52:18;;;;;;;56.17;32.03;;;4.40;99.90;;;;;;4992134;28;20182;-48
2021/12/12 03:54:47;;;;;;;59.55;33.05;;;4.40;99.90;;;;;;4991329;28;20047;-47
2021/12/12 03:57:16;;;;;;;52.63;31.73;;;4.40;99.90;;;;;;4989516;28;20099;-49
2021/12/12 03:59:43;;;;;;;54.20;32.63;;;4.50;99.90;;;;;;4991968;28;20049;-49
2021/12/12 04:02:09;;;;;;;46.88;27.17;;;4.50;99.90;;;;;;4992585;28;20054;-59
2021/12/12 04:04:39;;;;;;;47.47;29.42;;;4.50;99.90;;;;;;5010150;28;20080;-60
2021/12/12 04:07:13;;;;;;;50.42;31.17;;;4.50;99.90;;;;;;4992535;28;20123;-61
2021/12/12 04:09:40;;;;;;;52.15;30.13;;;4.50;99.90;;;;;;4987976;28;20081;-48
2021/12/12 04:12:09;;;;;;;49.75;29.95;;;4.60;99.90;;;;;;4972549;28;20107;-60
2021/12/12 04:14:36;;;;;;;51.33;29.88;;;4.60;99.90;;;;;;4992823;28;20057;-49
2021/12/12 04:17:07;;;;;;;53.38;30.27;;;4.50;99.90;;;;;;4990837;28;20056;-49
2021/12/12 04:19:34;;;;;;;50.50;30.20;;;4.50;99.90;;;;;;4990482;28;20061;-48
2021/12/12 04:22:02;;;;;;;48.60;28.95;;;4.60;99.90;;;;;;5009174;28;20089;-50
2021/12/12 04:24:34;;;;;;;47.85;29.13;;;4.60;99.90;;;;;;5009175;28;20089;-48
2021/12/12 04:27:00;;;;;;;;;;;4.60;99.90;;;;;;4992549;28;20080;-60
2021/12/12 04:29:33;;;;;;;48.75;27.65;;;4.60;99.90;;;;;;4999242;28;19921;-59
2021/12/12 04:32:04;;;;;;;47.92;29.42;;;4.60;99.90;;;;;;5008732;28;20054;-49
2021/12/12 04:34:33;;;;;;;45.10;29.20;;;4.70;99.90;;;;;;4990201;28;20066;-51
2021/12/12 04:37:01;;;;;;;45.90;27.77;;;4.70;99.90;;;;;;5009040;28;20123;-49
2021/12/12 04:39:33;;;;;;;46.97;28.90;;;4.60;99.90;;;;;;4989405;28;20053;-49
2021/12/12 04:42:06;;;;;;;46.08;28.90;;;4.70;99.90;;;;;;4996312;28;20065;-49
2021/12/12 04:44:36;;;;;;;42.80;27.45;;;4.70;99.90;;;;;;4974519;28;20053;-49
2021/12/12 04:50:18;;;;;;;46.22;29.13;;;4.70;99.90;;;;;;4999796;28;20054;-60
2021/12/12 04:53:00;;;;;;;49.88;27.45;;;4.70;99.90;;;;;;4996013;28;20112;-60
2021/12/12 04:55:50;;;;;;;45.08;28.10;;;4.70;99.90;;;;;;5007744;28;20134;-60
2021/12/12 04:58:28;;;;;;;42.38;28.60;;;4.80;99.90;;;;;;5009930;28;20143;-60
2021/12/12 05:01:16;;;;;;;41.20;28.73;;;4.80;99.90;;;;;;4992798;28;20108;-48
2021/12/12 05:04:13;;;;;;;42.05;28.05;;;4.80;99.90;;;;;;4991651;28;20096;-48
2021/12/12 05:06:55;;;;;;;35.90;27.60;;;4.80;99.90;;;;;;5008592;28;20053;-59
2021/12/12 05:09:35;;;;;;;37.28;26.73;;;4.80;99.90;;;;;;4967194;28;20054;-60
2021/12/12 05:12:06;;;;;;;41.22;26.40;;;4.80;99.90;;;;;;4980845;28;20490;-60
2021/12/12 05:14:40;;;;;;;39.13;27.63;;;4.90;99.90;;;;;;4972836;28;20073;-60
2021/12/12 05:17:13;;;;;;;37.42;26.58;;;4.80;99.90;;;;;;4989368;28;20093;-60
2021/12/12 05:19:49;;;;;;;34.90;24.92;;;4.80;99.90;;;;;;4975129;28;20050;-61
2021/12/12 05:22:21;;;;;;;39.15;24.63;;;4.90;99.90;;;;;;4973661;28;20050;-60
2021/12/12 05:24:50;;;;;;;39.33;25.02;;;4.90;99.90;;;;;;4964911;28;20049;-60
2021/12/12 05:27:20;;;;;;;38.92;25.98;;;4.90;99.90;;;;;;4997373;28;20094;-51
2021/12/12 05:29:55;;;;;;;35.50;23.17;;;4.90;99.90;;;;;;4990180;28;20189;-60
2021/12/12 05:32:22;;;;;;;30.63;22.50;;;4.90;99.90;;;;;;5008665;28;20054;-60
2021/12/12 05:34:51;;;;;;;34.70;22.75;;;5.00;99.90;;;;;;4990658;28;20050;-60
2021/12/12 05:37:20;;;;;;;29.55;21.42;;;4.90;99.90;;;;;;4988923;28;20144;-60
2021/12/12 05:39:47;;;;;;;31.45;21.08;;;5.00;99.90;;;;;;4975450;28;20050;-59
2021/12/12 05:42:14;;;;;;;28.15;19.83;;;5.00;99.90;;;;;;4990905;28;20064;-48
2021/12/12 05:44:42;;;;;;;25.10;17.98;;;5.00;99.90;;;;;;4990844;28;20058;-48
2021/12/12 05:47:10;;;;;;;24.40;18.90;;;5.00;99.90;;;;;;5008997;28;20081;-52
2021/12/12 05:49:39;;;;;;;23.85;19.75;;;5.10;99.90;;;;;;5009046;28;20521;-51
2021/12/12 05:52:11;;;;;;;25.20;18.27;;;5.10;99.90;;;;;;5007588;28;20505;-50
2021/12/12 05:54:38;;;;;;;27.60;19.70;;;5.10;99.90;;;;;;5009691;28;20199;-60
2021/12/12 05:57:04;;;;;;;28.60;19.88;;;5.20;99.90;;;;;;4978522;28;20061;-60
2021/12/12 05:59:31;;;;;;;25.40;19.48;;;5.20;99.90;;;;;;4993414;28;20057;-51
2021/12/12 06:02:00;;;;;;;24.52;18.55;;;5.20;99.90;;;;;;5012021;28;20133;-49
2021/12/12 06:04:27;;;;;;;24.27;19.15;;;5.20;99.90;;;;;;5011012;28;20061;-50
2021/12/12 06:06:53;;;;;;;24.35;18.63;;;5.20;99.90;;;;;;4994098;28;20128;-48
2021/12/12 06:09:21;;;;;;;26.88;19.48;;;5.20;99.90;;;;;;4990028;28;20046;-60
2021/12/12 06:11:50;;;;;;;22.85;19.60;;;5.20;99.90;;;;;;5012251;28;20061;-60
2021/12/12 06:14:17;;;;;;;23.30;18.60;;;5.30;99.90;;;;;;4980427;28;20054;-60
2021/12/12 06:16:45;;;;;;;25.13;20.45;;;5.30;99.90;;;;;;5017185;28;20054;-48
2021/12/12 06:19:21;;;;;;;29.45;21.05;;;5.30;99.90;;;;;;4993367;28;20191;-50
2021/12/12 06:21:57;;;;;;;26.50;20.95;;;5.30;99.90;;;;;;5008086;28;20046;-49
2021/12/12 06:24:26;;;;;;;28.27;21.45;;;5.40;99.90;;;;;;4992517;28;20049;-48
2021/12/12 06:26:54;;;;;;;29.35;21.75;;;5.30;99.90;;;;;;5011544;28;20050;-48
2021/12/12 06:29:20;;;;;;;30.00;21.92;;;5.30;99.90;;;;;;4994717;28;20050;-49
2021/12/12 06:31:49;;;;;;;25.25;21.02;;;5.30;99.90;;;;;;5010309;28;20088;-47
2021/12/12 06:34:17;;;;;;;31.25;21.80;;;5.40;99.90;;;;;;5012397;28;20096;-47
2021/12/12 06:36:44;;;;;;;28.15;22.52;;;5.40;99.90;;;;;;4993510;28;20081;-48
2021/12/12 06:39:14;;;;;;;28.83;21.65;;;5.40;99.90;;;;;;5010793;28;20490;-49
2021/12/12 06:41:40;;;;;;;28.75;22.20;;;5.40;99.90;;;;;;4992219;28;20046;-50
2021/12/12 06:44:09;;;;;;;27.85;21.50;;;5.40;99.90;;;;;;4994113;28;20053;-48
2021/12/12 06:46:38;;;;;;;29.20;22.63;;;5.40;99.90;;;;;;5011581;28;20488;-48
2021/12/12 06:49:09;;;;;;;27.58;20.42;;;5.40;99.90;;;;;;4994394;28;20053;-48
2021/12/12 06:51:43;;;;;;;26.42;22.02;;;5.40;99.90;;;;;;4994074;28;20401;-47
2021/12/12 06:54:13;;;;;;;29.27;22.23;;;5.50;99.90;;;;;;4980345;28;20058;-49
2021/12/12 06:56:39;;;;;;;31.33;22.58;;;5.50;99.90;;;;;;5010547;28;20054;-60
2021/12/12 06:59:06;;;;;;;36.92;22.52;;;5.50;99.90;;;;;;5012157;28;20107;-59
2021/12/12 07:01:34;;;;;;;35.25;22.45;;;5.50;99.90;;;;;;4977771;28;20058;-60
2021/12/12 07:04:02;;;;;;;28.92;22.63;;;5.50;99.90;;;;;;4994067;28;20083;-50
2021/12/12 07:06:30;;;;;;;30.30;21.35;;;5.40;99.90;;;;;;4993261;28;20117;-60
2021/12/12 07:08:59;;;;;;;30.83;21.67;;;5.40;99.90;;;;;;4989652;28;20112;-49
2021/12/12 07:11:27;;;;;;;29.45;21.60;;;5.40;99.90;;;;;;4997972;28;20046;-51
2021/12/12 07:13:54;;;;;;;33.47;22.98;;;5.50;99.90;;;;;;4993255;28;20049;-49
2021/12/12 07:16:21;;;;;;;33.47;23.33;;;5.50;99.90;;;;;;5009488;28;20050;-48
2021/12/12 07:18:48;;;;;;;29.65;21.70;;;5.50;99.90;;;;;;4991889;28;20063;-53
2021/12/12 07:21:17;;;;;;;30.88;23.13;;;5.50;99.90;;;;;;5010055;28;20089;-60
2021/12/12 07:23:45;;;;;;;35.15;21.77;;;5.50;99.90;;;;;;4972776;28;20080;-60
2021/12/12 07:26:13;;;;;;;28.92;22.38;;;5.60;99.90;;;;;;4991796;28;20056;-60
2021/12/12 07:28:41;;;;;;;30.23;20.83;;;5.50;99.90;;;;;;4977531;28;20046;-60
2021/12/12 07:31:11;;;;;;;31.95;22.48;;;5.60;99.90;;;;;;4989928;28;20054;-60
2021/12/12 07:33:39;;;;;;;31.48;22.90;;;5.60;99.90;;;;;;4992876;28;20374;-60
2021/12/12 07:36:08;;;;;;;31.58;22.85;;;5.60;99.90;;;;;;4960364;28;20053;-60
2021/12/12 07:38:35;;;;;;;32.47;22.23;;;5.70;99.90;;;;;;5009700;28;20057;-60
2021/12/12 07:41:05;;;;;;;33.72;22.92;;;5.70;99.90;;;;;;5009388;28;20405;-60
2021/12/12 07:43:32;;;;;;;31.27;23.02;;;5.80;99.90;;;;;;5010784;28;20046;-60
2021/12/12 07:45:59;;;;;;;32.72;22.88;;;5.80;99.90;;;;;;4975874;28;20050;-60
2021/12/12 07:48:26;;;;;;;30.70;21.92;;;5.80;99.90;;;;;;4990641;28;20038;-60
2021/12/12 07:50:53;;;;;;;32.72;22.30;;;5.80;99.90;;;;;;5001761;28;20139;-60
2021/12/12 07:53:24;;;;;;;29.55;22.23;;;5.80;99.90;;;;;;4989592;28;20076;-60
2021/12/12 07:55:52;;;;;;;31.23;21.95;;;5.80;99.90;;;;;;4992280;28;20061;-60
2021/12/12 07:58:19;;;;;;;33.10;22.98;;;5.80;99.90;;;;;;4993135;28;20439;-61
2021/12/12 08:00:47;;;;;;;29.42;22.75;;;5.80;99.90;;;;;;5014535;28;20087;-60
2021/12/12 08:03:15;;;;;;;31.52;23.33;;;5.80;99.90;;;;;;4968203;28;20065;-60
2021/12/12 08:05:42;;;;;;;27.90;21.48;;;5.80;99.90;;;;;;5002465;28;20486;-60
2021/12/12 08:08:12;;;;;;;29.42;21.85;;;5.90;99.90;;;;;;5006526;28;20650;-60
2021/12/12 08:10:41;;;;;;;30.60;20.48;;;5.90;99.90;;;;;;4992686;28;20042;-60
2021/12/12 08:13:10;;;;;;;28.85;22.15;;;5.90;99.90;;;;;;4992832;28;20188;-58
2021/12/12 08:15:37;;;;;;;31.50;21.27;;;6.00;99.90;;;;;;5010776;28;20054;-58
2021/12/12 08:18:06;;;;;;;33.13;22.55;;;5.90;99.90;;;;;;5010348;28;20049;-57
2021/12/12 08:20:34;;;;;;;33.15;20.83;;;6.00;99.90;;;;;;4978345;28;20062;-58
2021/12/12 08:23:00;;;;;;;37.38;25.20;;;6.00;99.90;;;;;;4973438;28;20065;-56
2021/12/12 08:25:27;;;;;;;37.75;23.85;;;6.00;99.90;;;;;;4989591;28;20042;-57
2021/12/12 08:27:57;;;;;;;39.40;24.38;;;6.00;99.90;;;;;;4956626;28;20794;-58
2021/12/12 08:30:24;;;;;;;37.30;24.48;;;6.00;99.90;;;;;;4972482;28;20046;-58
2021/12/12 08:32:51;;;;;;;42.38;26.05;;;6.10;99.90;;;;;;4983478;28;20049;-58
2021/12/12 08:35:20;;;;;;;38.95;25.88;;;6.10;99.90;;;;;;4964799;28;20069;-58
2021/12/12 08:37:47;;;;;;;36.70;24.33;;;6.10;99.90;;;;;;4985062;28;20042;-58
2021/12/12 08:40:18;;;;;;;41.47;25.05;;;6.20;99.90;;;;;;4978379;28;20788;-58
2021/12/12 08:42:49;;;;;;;40.05;25.63;;;6.20;99.90;;;;;;4987809;28;20139;-58
2021/12/12 08:45:19;;;;;;;38.22;25.25;;;6.20;99.90;;;;;;4990113;28;20069;-58
2021/12/12 08:47:49;;;;;;;37.47;24.33;;;6.20;99.90;;;;;;4990026;28;20046;-58
2021/12/12 08:50:19;;;;;;;37.70;25.15;;;6.30;99.90;;;;;;4972691;28;20100;-58
2021/12/12 08:52:47;;;;;;;37.60;25.45;;;6.30;99.90;;;;;;4989798;28;20132;-58
2021/12/12 08:55:19;;;;;;;34.80;23.83;;;6.30;99.90;;;;;;4990112;28;20128;-58
2021/12/12 08:57:58;;;;;;;;;;;6.40;99.90;;;;;;4956617;28;20224;-58
2021/12/12 09:00:29;;;;;;;39.53;25.02;;;6.40;99.90;;;;;;4989786;28;20352;-57
2021/12/12 09:02:55;;;;;;;34.92;22.60;;;6.50;99.90;;;;;;4989969;28;20046;-58
2021/12/12 09:05:27;;;;;;;38.95;22.88;;;6.50;99.90;;;;;;4993491;28;20508;-57
2021/12/12 09:08:02;;;;;;;37.17;23.35;;;6.50;99.90;;;;;;4988124;28;20455;-58
2021/12/12 09:10:35;;;;;;;38.90;23.23;;;6.60;99.90;;;;;;4971796;28;20043;-58
2021/12/12 09:13:17;;;;;;;41.17;24.67;;;6.60;99.90;;;;;;4988973;28;20149;-58
2021/12/12 09:16:04;;;;;;;40.85;23.60;;;6.60;99.90;;;;;;4988732;28;20587;-56
2021/12/12 09:18:51;;;;;;;43.03;23.35;;;6.70;99.90;;;;;;4997451;28;20058;-58
2021/12/12 09:21:26;;;;;;;42.22;26.20;;;6.70;99.90;;;;;;4988913;28;20057;-58
2021/12/12 09:24:23;;;;;;;48.10;26.10;;;6.80;99.90;;;;;;4971031;28;20405;-58
2021/12/12 09:26:54;;;;;;;49.67;27.15;;;6.80;99.90;;;;;;4955121;28;20052;-55
2021/12/12 09:29:32;;;;;;;57.38;28.80;;;6.90;99.90;;;;;;4938663;28;20050;-58
2021/12/12 09:32:00;;;;;;;51.35;28.67;;;6.90;99.90;;;;;;4992188;28;20058;-59
2021/12/12 09:34:54;;;;;;;45.25;27.63;;;6.90;99.90;;;;;;4993357;28;20073;-59
2021/12/12 09:37:31;;;;;;;52.63;27.38;;;7.00;99.90;;;;;;4992702;28;20061;-58
2021/12/12 09:40:11;;;;;;;54.45;28.77;;;7.00;99.90;;;;;;4974991;28;20047;-59
2021/12/12 09:43:00;;;;;;;51.83;29.15;;;7.00;99.90;;;;;;4974188;28;20047;-59
2021/12/12 09:45:58;;;;;;;54.97;28.02;;;7.00;99.90;;;;;;4992091;28;20532;-58
2021/12/12 09:51:43;;;;;;;;;;;7.10;99.90;;;;;;4991257;28;20034;-58
2021/12/12 09:54:27;;;;;;;58.80;28.33;;;7.20;99.90;;;;;;4974702;28;19926;-58
2021/12/12 09:57:33;;;;;;;53.40;29.27;;;7.10;99.90;;;;;;4992595;28;20088;-58
2021/12/12 10:00:17;;;;;;;51.75;30.45;;;7.20;99.90;;;;;;4992567;28;20125;-58
2021/12/12 10:03:08;;;;;;;57.38;29.08;;;7.30;99.90;;;;;;4992738;28;20494;-59
2021/12/12 10:05:52;;;;;;;52.25;28.17;;;7.30;99.90;;;;;;4974590;28;20514;-58
2021/12/12 10:08:56;;;;;;;49.95;28.05;;;7.30;99.90;;;;;;4975463;28;20111;-58
2021/12/12 10:11:25;;;;;;;52.83;29.52;;;7.40;99.90;;;;;;4977798;28;20049;-59
2021/12/12 10:14:00;;;;;;;46.72;26.95;;;7.40;99.90;;;;;;5011390;28;20076;-58
2021/12/12 10:16:50;;;;;;;48.70;27.08;;;7.50;99.90;;;;;;5011814;28;20049;-58
2021/12/12 10:19:41;;;;;;;49.78;26.20;;;7.40;99.90;;;;;;4983491;28;20057;-58
2021/12/12 10:22:16;;;;;;;49.05;26.75;;;7.50;99.90;;;;;;5013497;28;20134;-58
2021/12/12 10:25:09;;;;;;;46.63;27.05;;;7.50;99.90;;;;;;5013250;28;20045;-59
2021/12/12 10:28:06;;;;;;;41.50;25.05;;;7.50;99.90;;;;;;5013699;28;20167;-58
2021/12/12 10:30:38;;;;;;;40.15;23.58;;;7.50;99.90;;;;;;5031288;28;20492;-45
2021/12/12 10:33:22;;;;;;;37.72;24.05;;;7.60;99.90;;;;;;4975067;28;20571;-45
2021/12/12 10:35:53;;;;;;;39.58;24.05;;;7.60;99.90;;;;;;5007693;28;20038;-46
2021/12/12 10:38:23;;;;;;;38.97;23.20;;;7.70;99.90;;;;;;5011654;28;20064;-45
2021/12/12 10:41:01;;;;;;;38.38;22.92;;;7.70;99.90;;;;;;4983011;28;20508;-45
2021/12/12 10:43:45;;;;;;;39.25;22.73;;;7.80;99.90;;;;;;5029915;28;20127;-45
2021/12/12 10:46:44;;;;;;;34.55;21.83;;;7.80;99.90;;;;;;5030482;28;20041;-45
2021/12/12 10:49:35;;;;;;;33.72;21.75;;;7.80;99.90;;;;;;4975575;28;20587;-45
2021/12/12 10:52:03;;;;;;;36.67;22.58;;;7.90;99.90;;;;;;5023580;28;20053;-45
2021/12/12 10:54:42;;;;;;;31.45;21.55;;;7.90;99.90;;;;;;4993540;28;20050;-45
2021/12/12 10:57:19;;;;;;;34.00;21.23;;;7.90;99.90;;;;;;5011347;28;20524;-46
2021/12/12 10:59:48;;;;;;;30.00;19.55;;;8.00;99.90;;;;;;4993350;28;20389;-46
2021/12/12 11:02:19;;;;;;;30.08;20.52;;;8.00;99.90;;;;;;5010656;28;20116;-46
2021/12/12 11:05:00;;;;;;;31.58;20.00;;;8.00;99.90;;;;;;4975366;28;20053;-58
2021/12/12 11:07:37;;;;;;;28.40;20.10;;;8.00;99.90;;;;;;5010419;28;20060;-58
2021/12/12 11:10:23;;;;;;;30.52;19.95;;;8.10;99.90;;;;;;5000788;28;20041;-57
2021/12/12 11:13:01;;;;;;;29.13;19.42;;;8.10;99.90;;;;;;5030233;28;20128;-58
2021/12/12 11:15:35;;;;;;;29.05;19.83;;;8.10;99.90;;;;;;5012734;28;20595;-46
2021/12/12 11:18:11;;;;;;;31.15;19.65;;;8.10;99.90;;;;;;5011312;28;20485;-58
2021/12/12 11:20:37;;;;;;;28.88;19.15;;;8.20;99.90;;;;;;5001892;28;20065;-58
2021/12/12 11:23:12;;;;;;;31.48;20.15;;;8.20;99.90;;;;;;4988438;28;20137;-58
2021/12/12 11:25:57;;;;;;;32.38;21.08;;;8.20;99.90;;;;;;5015285;28;20042;-58
2021/12/12 11:28:32;;;;;;;33.38;21.23;;;8.20;99.90;;;;;;5013432;28;20528;-58
2021/12/12 11:31:15;;;;;;;30.80;20.60;;;8.30;99.90;;;;;;4996117;28;20057;-58
2021/12/12 11:33:45;;;;;;;31.92;20.10;;;8.30;99.90;;;;;;5029963;28;20073;-44
2021/12/12 11:36:14;;;;;;;31.52;19.42;;;8.30;99.90;;;;;;5019801;28;20091;-44
2021/12/12 11:38:49;;;;;;;28.60;20.55;;;8.40;99.90;;;;;;5006771;28;20137;-47
2021/12/12 11:41:21;;;;;;;30.23;18.75;;;8.40;99.90;;;;;;4989791;28;20589;-46
2021/12/12 11:44:24;;;;;;;30.35;20.48;;;8.40;99.90;;;;;;5011457;28;20401;-45
2021/12/12 11:46:53;;;;;;;27.73;18.80;;;8.40;99.90;;;;;;5026850;28;20472;-45
2021/12/12 11:49:22;;;;;;;26.35;18.17;;;8.50;99.90;;;;;;5013779;28;20053;-58
2021/12/12 11:52:02;;;;;;;29.00;19.10;;;8.50;99.90;;;;;;4993398;28;20057;-58
2021/12/12 11:55:05;;;;;;;29.33;18.08;;;8.50;99.90;;;;;;5005652;28;20077;-58
2021/12/12 11:57:38;;;;;;;30.88;18.38;;;8.60;99.90;;;;;;5002824;28;20121;-58
2021/12/12 12:00:25;;;;;;;29.98;18.83;;;8.50;99.90;;;;;;4989387;28;20064;-58
2021/12/12 12:03:05;;;;;;;31.92;19.00;;;8.60;99.90;;;;;;5007275;28;20497;-58
2021/12/12 12:05:43;;;;;;;31.67;19.75;;;8.60;99.90;;;;;;5012855;28;20141;-59
2021/12/12 12:08:21;;;;;;;33.33;19.95;;;8.60;99.90;;;;;;5017925;28;20057;-58
2021/12/12 12:11:03;;;;;;;31.00;19.27;;;8.60;99.90;;;;;;5010109;28;20172;-58
2021/12/12 12:14:02;;;;;;;31.73;20.10;;;8.60;99.90;;;;;;4990645;28;20437;-60
2021/12/12 12:16:49;;;;;;;31.40;20.05;;;8.70;99.90;;;;;;5000392;28;20057;-60
2021/12/12 12:19:54;;;;;;;34.13;20.33;;;8.70;99.90;;;;;;5007798;28;20053;-63
2021/12/12 12:23:01;;;;;;;35.47;20.92;;;8.70;99.90;;;;;;5015592;28;20508;-60
2021/12/12 12:28:34;;;;;;;33.22;21.17;;;8.80;99.90;;;;;;5017131;28;20077;-48
2021/12/12 12:31:00;;;;;;;33.17;20.40;;;8.80;99.90;;;;;;5009714;28;20347;-43
2021/12/12 12:34:04;;;;;;;38.53;21.92;;;8.80;99.90;;;;;;4998215;28;20058;-47
2021/12/12 12:37:15;;;;;;;33.33;20.48;;;8.80;99.90;;;;;;5009053;28;20048;-47
2021/12/12 12:40:19;;;;;;;34.58;21.02;;;8.90;99.90;;;;;;4967658;28;20053;-44
2021/12/12 12:43:22;;;;;;;31.98;20.23;;;8.90;99.90;;;;;;4974829;28;20052;-59
2021/12/12 12:46:07;;;;;;;39.17;21.80;;;8.90;99.90;;;;;;4991627;28;20389;-60
2021/12/12 12:49:15;;;;;;;38.63;21.67;;;9.00;99.90;;;;;;4959355;28;20046;-60
2021/12/12 12:52:20;;;;;;;36.28;21.58;;;9.00;99.90;;;;;;4979801;28;20488;-60
2021/12/12 12:55:23;;;;;;;35.50;21.23;;;9.10;99.90;;;;;;5018836;28;20056;-47
2021/12/12 12:57:54;;;;;;;41.35;23.60;;;9.10;99.90;;;;;;5007508;28;20455;-43
2021/12/12 13:00:23;;;;;;;40.78;23.33;;;9.10;99.90;;;;;;5014729;28;20060;-46
2021/12/12 13:03:07;;;;;;;40.58;23.08;;;9.10;99.90;;;;;;4990345;28;20057;-44
2021/12/12 13:06:01;;;;;;;48.17;24.95;;;9.10;99.90;;;;;;4986693;28;20520;-47
2021/12/12 13:08:46;;;;;;;43.75;24.85;;;9.20;99.90;;;;;;5004159;28;20050;-48
2021/12/12 13:11:17;;;;;;;49.83;24.40;;;9.20;99.90;;;;;;5005941;28;20042;-45
2021/12/12 13:14:11;;;;;;;51.35;26.08;;;9.20;99.90;;;;;;5015447;28;20057;-46
2021/12/12 13:16:49;;;;;;;52.20;26.52;;;9.30;99.90;;;;;;4991382;28;20553;-45
2021/12/12 13:19:39;;;;;;;53.80;25.52;;;9.20;99.90;;;;;;4986828;28;20054;-46
2021/12/12 13:22:16;;;;;;;54.70;26.85;;;9.30;99.90;;;;;;5009756;28;20412;-44
2021/12/12 13:25:16;;;;;;;53.05;25.40;;;9.30;99.90;;;;;;5011080;28;20529;-44
2021/12/12 13:28:09;;;;;;;58.47;26.52;;;9.30;99.90;;;;;;5006615;28;20050;-46
2021/12/12 13:31:19;;;;;;;52.22;26.73;;;9.30;99.90;;;;;;5006846;28;20046;-48
2021/12/12 13:33:57;;;;;;;55.25;27.33;;;9.30;99.90;;;;;;4935500;28;20050;-45
2021/12/12 13:36:57;;;;;;;56.72;28.20;;;9.40;99.90;;;;;;4990684;28;20282;-60
2021/12/12 13:39:26;;;;;;;60.00;29.33;;;9.30;99.90;;;;;;5005485;28;20117;-60